Time;durP1;ratioP1;P1;durP2;ratioP2;P2;SDS_P1;SDS_P2;PMS_P1;PMS_P2;Temp;Humidity;BMP_temperature;BMP_pressure;BME280_temperature;BME280_humidity;BME280_pressure;Samples;Min_cycle;Max_cycle;Signal;HPM_P1;HPM_P2
2024/02/04 00:01:39;;;;;;;18.23;10.25;;;;;;;4.80;77.16;100397.31;5036503;28;20150;-77
2024/02/04 00:04:04;;;;;;;26.98;23.90;;;;;;;4.67;75.50;100386.47;5068884;28;20482;-77
2024/02/04 00:06:30;;;;;;;276.95;163.70;;;;;;;4.45;76.49;100397.78;5068587;28;20082;-78
2024/02/04 00:08:55;;;;;;;139.85;86.65;;;;;;;4.23;78.14;100385.16;5068246;28;20218;-77
2024/02/04 00:11:21;;;;;;;63.58;53.88;;;;;;;4.08;78.20;100356.97;5064518;28;20033;-78
2024/02/04 00:13:46;;;;;;;64.95;58.30;;;;;;;4.26;78.39;100410.38;5067808;28;20056;-77
2024/02/04 00:16:12;;;;;;;37.97;32.25;;;;;;;4.17;78.94;100395.56;5073515;28;20129;-78
2024/02/04 00:18:37;;;;;;;33.83;26.73;;;;;;;4.20;78.54;100388.13;5070440;28;20405;-78
2024/02/04 00:21:03;;;;;;;32.10;25.20;;;;;;;4.23;78.62;100390.44;5088697;28;20028;-77
2024/02/04 00:23:30;;;;;;;34.30;29.75;;;;;;;4.22;78.50;100380.03;5086238;28;20093;-79
2024/02/04 00:25:56;;;;;;;38.40;29.50;;;;;;;4.28;79.12;100399.66;5070460;28;20028;-78
2024/02/04 00:28:21;;;;;;;22.17;15.65;;;;;;;4.33;77.75;100377.06;5086286;28;20100;-78
2024/02/04 00:30:49;;;;;;;19.27;15.10;;;;;;;4.37;77.74;100385.44;5068416;28;20460;-77
2024/02/04 00:33:14;;;;;;;12.10;6.28;;;;;;;4.24;78.73;100388.63;5082801;28;20413;-77
2024/02/04 00:35:40;;;;;;;10.88;4.95;;;;;;;3.95;79.97;100397.09;5088544;28;20496;-77
2024/02/04 00:38:05;;;;;;;10.98;4.72;;;;;;;2.80;78.41;100375.94;5070058;28;20020;-77
2024/02/04 00:40:30;;;;;;;10.85;5.35;;;;;;;2.47;80.68;100391.59;5050684;28;20114;-77
2024/02/04 00:42:56;;;;;;;10.38;5.53;;;;;;;2.34;81.98;100386.78;5051446;28;20055;-77
2024/02/04 00:45:21;;;;;;;10.80;5.28;;;;;;;2.58;81.47;100372.09;5049971;28;20028;-77
2024/02/04 00:47:47;;;;;;;10.65;5.43;;;;;;;3.07;79.75;100385.38;5050233;28;20021;-77
2024/02/04 00:50:12;;;;;;;13.40;6.50;;;;;;;3.09;80.16;100388.69;5050220;28;20042;-78
2024/02/04 00:52:38;;;;;;;10.27;5.25;;;;;;;3.31;79.81;100396.94;5075629;28;20417;-77
2024/02/04 00:55:04;;;;;;;11.77;5.65;;;;;;;3.07;81.00;100382.75;5088073;28;20536;-78
2024/02/04 00:57:29;;;;;;;10.27;4.93;;;;;;;2.94;80.92;100392.91;5087947;28;20103;-77
2024/02/04 00:59:55;;;;;;;10.35;5.30;;;;;;;2.70;82.32;100381.34;5075728;28;20121;-78
2024/02/04 01:02:20;;;;;;;9.05;5.28;;;;;;;2.62;83.11;100402.38;5072639;28;21004;-78
2024/02/04 01:04:45;;;;;;;11.90;6.93;;;;;;;2.81;82.19;100393.38;5087913;28;20040;-78
2024/02/04 01:07:11;;;;;;;12.40;6.25;;;;;;;2.98;81.70;100381.06;5087660;28;20473;-78
2024/02/04 01:09:36;;;;;;;13.00;6.75;;;;;;;2.83;80.75;100354.53;5088507;28;20034;-78
2024/02/04 01:12:03;;;;;;;12.63;7.35;;;;;;;2.91;80.49;100372.19;5070057;28;20036;-78
2024/02/04 01:14:28;;;;;;;11.80;6.88;;;;;;;2.92;80.83;100379.94;5069327;28;20058;-78
2024/02/04 01:16:53;;;;;;;14.63;7.57;;;;;;;3.08;80.35;100405.47;5069458;28;20497;-78
2024/02/04 01:19:19;;;;;;;33.13;21.85;;;;;;;2.77;81.27;100371.81;5077572;28;20044;-78
2024/02/04 01:21:44;;;;;;;15.18;8.55;;;;;;;2.69;81.39;100355.97;5088273;28;20020;-77
2024/02/04 01:24:10;;;;;;;13.90;7.00;;;;;;;2.80;82.48;100382.03;5070880;28;20029;-78
2024/02/04 01:26:35;;;;;;;17.23;7.15;;;;;;;2.96;81.33;100398.84;5067616;28;20038;-77
2024/02/04 01:29:01;;;;;;;12.80;7.25;;;;;;;2.81;81.33;100381.03;5070245;28;20040;-78
2024/02/04 01:31:27;;;;;;;14.75;7.45;;;;;;;2.84;82.48;100386.97;5067577;28;20028;-79
2024/02/04 01:33:52;;;;;;;19.55;9.77;;;;;;;2.84;82.28;100385.19;5064295;28;20040;-77
2024/02/04 01:36:18;;;;;;;16.98;8.90;;;;;;;2.74;83.55;100379.22;5087777;28;20032;-78
2024/02/04 01:38:43;;;;;;;19.30;10.05;;;;;;;2.79;83.78;100380.38;5087096;28;20462;-77
2024/02/04 01:41:08;;;;;;;19.48;9.68;;;;;;;2.81;83.43;100377.59;5069167;28;20040;-77
2024/02/04 01:43:34;;;;;;;17.90;9.50;;;;;;;3.01;82.99;100393.94;5070128;28;20032;-77
2024/02/04 01:45:59;;;;;;;15.23;8.43;;;;;;;2.86;83.22;100370.03;5066967;28;20020;-77
2024/02/04 01:48:25;;;;;;;20.92;14.27;;;;;;;2.85;83.78;100386.81;5067058;28;20032;-76
2024/02/04 01:50:54;;;;;;;25.08;16.33;;;;;;;2.49;85.18;100350.16;5066845;28;20120;-78
2024/02/04 01:53:23;;;;;;;14.63;10.18;;;;;;;2.77;84.19;100384.16;5056457;28;20505;-76
2024/02/04 01:55:49;;;;;;;11.93;7.72;;;;;;;2.39;84.29;100367.88;5087270;28;20069;-77
2024/02/04 01:58:15;;;;;;;18.70;9.60;;;;;;;2.13;84.54;100362.69;5087713;28;20040;-77
2024/02/04 02:00:41;;;;;;;16.73;9.23;;;;;;;1.88;86.52;100370.44;5087114;28;20055;-76
2024/02/04 02:03:11;;;;;;;17.17;9.18;;;;;;;1.83;86.94;100371.88;5066120;28;20206;-76
2024/02/04 02:05:36;;;;;;;16.85;8.30;;;;;;;1.61;87.16;100368.75;5066783;28;20033;-75
2024/02/04 02:08:02;;;;;;;13.57;8.25;;;;;;;2.09;85.26;100385.03;5066954;28;20397;-78
2024/02/04 02:10:27;;;;;;;17.50;8.27;;;;;;;2.03;84.71;100351.44;5048743;28;20409;-78
2024/02/04 02:13:14;;;;;;;17.73;10.57;;;;;;;2.32;84.76;100387.94;5068376;28;20123;-77
2024/02/04 02:15:54;;;;;;;18.08;9.60;;;;;;;2.29;84.22;100383.81;5048190;28;20033;-77
2024/02/04 02:18:31;;;;;;;17.70;8.90;;;;;;;1.93;85.29;100388.38;5066578;28;20382;-77
2024/02/04 02:21:02;;;;;;;18.67;9.40;;;;;;;2.00;85.59;100379.72;5066547;28;20094;-76
2024/02/04 02:23:36;;;;;;;20.65;14.32;;;;;;;1.94;86.22;100377.72;5051371;28;20036;-77
2024/02/04 02:26:04;;;;;;;18.52;9.77;;;;;;;1.62;86.51;100374.84;5066561;28;20035;-78
2024/02/04 02:28:29;;;;;;;18.30;9.80;;;;;;;1.66;86.12;100363.88;5066740;28;20025;-77
2024/02/04 02:30:54;;;;;;;18.52;9.65;;;;;;;1.64;86.95;100373.72;5069553;28;20033;-75
2024/02/04 02:33:20;;;;;;;36.33;24.38;;;;;;;1.69;87.15;100349.59;5048774;28;20062;-76
2024/02/04 02:35:53;;;;;;;24.13;14.18;;;;;;;1.80;87.67;100362.50;5058233;28;20024;-77
2024/02/04 02:38:46;;;;;;;25.20;14.55;;;;;;;2.24;86.35;100380.81;5087194;28;20024;-77
2024/02/04 02:41:13;;;;;;;21.45;12.07;;;;;;;2.18;86.58;100378.81;5056889;28;20085;-76
2024/02/04 02:43:41;;;;;;;22.92;13.05;;;;;;;2.12;87.56;100371.53;5072603;28;20036;-76
2024/02/04 02:46:07;;;;;;;24.63;13.02;;;;;;;2.39;85.49;100371.38;5086790;28;20420;-77
2024/02/04 02:48:32;;;;;;;22.92;13.95;;;;;;;2.21;86.41;100375.88;5087653;28;20064;-77
2024/02/04 02:50:58;;;;;;;78.38;51.92;;;;;;;2.19;87.73;100372.59;5083715;28;20067;-78
2024/02/04 02:53:24;;;;;;;28.67;16.85;;;;;;;2.28;87.40;100376.06;5050781;28;20028;-77
2024/02/04 02:55:49;;;;;;;24.30;13.93;;;;;;;2.01;87.83;100362.94;5087979;28;20115;-78
2024/02/04 02:58:15;;;;;;;59.35;40.20;;;;;;;1.91;89.86;100391.16;5086639;28;20392;-78
2024/02/04 03:00:40;;;;;;;33.45;21.02;;;;;;;1.84;89.28;100363.84;5084844;28;20024;-79
2024/02/04 03:03:05;;;;;;;23.35;12.70;;;;;;;1.72;89.76;100360.63;5077129;28;20055;-78
2024/02/04 03:05:31;;;;;;;20.08;11.77;;;;;;;1.54;90.59;100362.47;5064386;28;20094;-78
2024/02/04 03:07:59;;;;;;;21.88;14.02;;;;;;;1.87;88.61;100374.03;5081152;28;20028;-78
2024/02/04 03:10:24;;;;;;;23.00;12.18;;;;;;;1.81;88.02;100370.19;5081006;28;20077;-77
2024/02/04 03:12:50;;;;;;;20.20;13.13;;;;;;;1.10;91.31;100350.09;5070219;28;20033;-78
2024/02/04 03:15:15;;;;;;;27.95;19.70;;;;;;;1.44;90.46;100357.28;5067502;28;20519;-78
2024/02/04 03:17:42;;;;;;;25.02;13.15;;;;;;;1.52;89.55;100370.50;5081128;28;20049;-79
2024/02/04 03:20:09;;;;;;;19.65;11.88;;;;;;;1.66;88.55;100370.94;5063101;28;20020;-79
2024/02/04 03:22:34;;;;;;;27.20;17.40;;;;;;;1.51;89.96;100349.63;5079968;28;20405;-78
2024/02/04 03:24:59;;;;;;;15.52;9.25;;;;;;;1.82;88.30;100357.91;5084593;28;20031;-78
2024/02/04 03:27:25;;;;;;;20.35;9.95;;;;;;;1.91;87.20;100348.25;5058371;28;20064;-78
2024/02/04 03:29:50;;;;;;;17.15;9.30;;;;;;;1.76;87.96;100348.00;5077962;28;20433;-79
2024/02/04 03:32:16;;;;;;;18.48;11.13;;;;;;;1.81;87.37;100327.31;5077733;28;20032;-78
2024/02/04 03:34:42;;;;;;;20.23;10.27;;;;;;;1.95;86.62;100360.94;5053815;28;20035;-78
2024/02/04 03:37:07;;;;;;;17.63;10.60;;;;;;;1.95;87.37;100345.16;5070311;28;20017;-78
2024/02/04 03:39:32;;;;;;;70.22;42.80;;;;;;;1.85;88.46;100346.25;5069958;28;20033;-78
2024/02/04 03:41:58;;;;;;;63.05;38.22;;;;;;;1.59;90.07;100326.88;5053692;28;20032;-79
2024/02/04 03:44:23;;;;;;;116.47;65.50;;;;;;;1.70;89.87;100343.38;5053843;28;20032;-79
2024/02/04 03:46:50;;;;;;;40.78;21.75;;;;;;;1.78;89.21;100346.03;5052820;28;20478;-78
2024/02/04 03:49:15;;;;;;;30.70;16.58;;;;;;;1.75;89.41;100346.34;5077100;28;20115;-78
2024/02/04 03:51:41;;;;;;;22.92;12.23;;;;;;;2.04;87.16;100316.25;5092612;28;20052;-77
2024/02/04 03:54:06;;;;;;;15.75;9.07;;;;;;;2.11;87.13;100339.16;5096523;28;20053;-79
2024/02/04 03:56:32;;;;;;;16.05;9.10;;;;;;;2.09;85.97;100329.78;5100283;28;20495;-78
2024/02/04 03:58:57;;;;;;;17.13;9.38;;;;;;;2.08;87.17;100343.91;5082861;28;20028;-78
2024/02/04 04:01:23;;;;;;;16.02;7.85;;;;;;;2.08;87.54;100330.75;5096304;28;20500;-78
2024/02/04 04:03:49;;;;;;;13.63;8.02;;;;;;;2.17;87.25;100327.19;5079613;28;20462;-78
2024/02/04 04:06:16;;;;;;;13.82;7.63;;;;;;;2.18;86.24;100334.09;5098308;28;20035;-79
2024/02/04 04:08:42;;;;;;;15.15;8.32;;;;;;;1.89;87.80;100347.59;5096645;28;20111;-79
2024/02/04 04:11:09;;;;;;;15.15;9.13;;;;;;;1.93;87.46;100339.22;5076754;28;20064;-79
2024/02/04 04:13:34;;;;;;;16.60;9.82;;;;;;;1.67;88.62;100347.09;5076648;28;20092;-79
2024/02/04 04:16:01;;;;;;;21.30;10.73;;;;;;;1.56;88.98;100350.00;5071572;28;20550;-78
2024/02/04 04:18:26;;;;;;;17.05;10.70;;;;;;;1.71;87.74;100340.56;5096552;28;20039;-78
2024/02/04 04:20:52;;;;;;;19.27;10.90;;;;;;;1.80;86.95;100338.81;5077517;28;20035;-79
2024/02/04 04:23:17;;;;;;;22.77;10.15;;;;;;;1.62;87.36;100307.31;5092787;28;20555;-79
2024/02/04 04:25:43;;;;;;;17.70;10.20;;;;;;;1.85;86.53;100317.31;5072488;28;20576;-79
2024/02/04 04:28:08;;;;;;;19.45;10.25;;;;;;;1.69;87.56;100302.25;5093295;28;20028;-78
2024/02/04 04:30:33;;;;;;;18.20;9.93;;;;;;;1.50;89.22;100314.63;5091735;28;20473;-78
2024/02/04 04:32:59;;;;;;;21.67;13.63;;;;;;;1.74;89.08;100329.75;5075353;28;20033;-79
2024/02/04 04:35:25;;;;;;;22.40;12.10;;;;;;;0.93;90.25;100301.03;5073095;28;20036;-78
2024/02/04 04:37:50;;;;;;;21.77;11.93;;;;;;;1.07;89.90;100329.41;5069593;28;20043;-78
2024/02/04 04:40:16;;;;;;;24.13;13.10;;;;;;;0.76;92.20;100331.56;5069107;28;20029;-78
2024/02/04 04:42:41;;;;;;;27.85;14.63;;;;;;;1.16;88.46;100291.69;5081061;28;20557;-79
2024/02/04 04:45:07;;;;;;;29.50;14.88;;;;;;;1.35;87.44;100309.13;5069725;28;20020;-78
2024/02/04 04:47:33;;;;;;;27.98;15.38;;;;;;;1.36;86.59;100300.25;5070100;28;20035;-78
2024/02/04 04:49:59;;;;;;;25.60;14.30;;;;;;;1.51;87.30;100326.81;5088689;28;20028;-78
2024/02/04 04:52:25;;;;;;;27.25;16.45;;;;;;;1.36;87.30;100304.69;5061616;28;20500;-78
2024/02/04 04:54:50;;;;;;;25.30;14.88;;;;;;;1.25;88.47;100318.03;5051391;28;20032;-78
2024/02/04 04:57:15;;;;;;;23.92;13.45;;;;;;;0.83;90.71;100319.50;5088214;28;20036;-78
2024/02/04 04:59:41;;;;;;;21.55;12.48;;;;;;;1.22;89.64;100332.31;5088283;28;20098;-79
2024/02/04 05:02:06;;;;;;;24.35;13.00;;;;;;;1.28;88.13;100330.88;5088429;28;20127;-78
2024/02/04 05:04:32;;;;;;;19.77;11.43;;;;;;;1.33;87.69;100307.63;5088824;28;20032;-79
2024/02/04 05:06:57;;;;;;;20.20;10.30;;;;;;;1.45;87.26;100337.94;5087413;28;20023;-78
2024/02/04 05:09:23;;;;;;;20.55;11.90;;;;;;;1.31;89.08;100333.19;5087706;28;20153;-79
2024/02/04 05:11:48;;;;;;;22.20;12.43;;;;;;;1.24;89.75;100340.03;5086630;28;20028;-79
2024/02/04 05:14:13;;;;;;;20.02;11.45;;;;;;;1.26;89.87;100348.59;5050357;28;20040;-79
2024/02/04 05:16:39;;;;;;;20.33;11.82;;;;;;;1.37;88.43;100324.72;5054707;28;20052;-78
2024/02/04 05:19:04;;;;;;;21.08;12.82;;;;;;;1.43;88.20;100334.63;5067465;28;20016;-78
2024/02/04 05:21:30;;;;;;;20.83;12.18;;;;;;;1.62;88.11;100365.16;5067157;28;20029;-78
2024/02/04 05:23:55;;;;;;;20.25;12.15;;;;;;;1.15;89.58;100337.34;5050058;28;20036;-78
2024/02/04 05:26:21;;;;;;;24.02;13.57;;;;;;;0.93;91.89;100345.69;5050998;28;20565;-78
2024/02/04 05:28:46;;;;;;;27.50;14.15;;;;;;;1.27;90.02;100355.50;5029550;28;20089;-78
2024/02/04 05:31:12;;;;;;;69.43;30.67;;;;;;;1.57;89.45;100364.78;5030449;28;20044;-79
2024/02/04 05:33:37;;;;;;;35.63;21.70;;;;;;;1.61;89.25;100368.75;5029345;28;20505;-79
2024/02/04 05:36:03;;;;;;;39.88;21.30;;;;;;;1.64;88.87;100359.75;5054036;28;20031;-78
2024/02/04 05:38:29;;;;;;;39.03;22.95;;;;;;;1.64;88.98;100362.38;5048838;28;20032;-79
2024/02/04 05:40:54;;;;;;;41.00;25.00;;;;;;;1.52;90.44;100362.63;5067294;28;20032;-80
2024/02/04 05:43:20;;;;;;;43.67;25.48;;;;;;;1.59;91.34;100366.28;5067240;28;20040;-78
2024/02/04 05:45:45;;;;;;;51.78;26.42;;;;;;;1.89;90.10;100374.69;5065052;28;20529;-79
2024/02/04 05:48:11;;;;;;;62.45;36.05;;;;;;;2.07;89.46;100385.16;5067582;28;20035;-79
2024/02/04 05:50:36;;;;;;;43.55;25.17;;;;;;;1.84;92.23;100381.41;5067537;28;20573;-79
2024/02/04 05:53:02;;;;;;;37.95;23.42;;;;;;;1.79;93.65;100397.66;5059516;28;20035;-79
2024/02/04 05:55:29;;;;;;;41.38;23.25;;;;;;;1.62;94.61;100394.06;5047201;28;20473;-78
2024/02/04 05:57:54;;;;;;;36.65;19.70;;;;;;;1.48;94.41;100379.66;5049113;28;20079;-79
2024/02/04 06:00:20;;;;;;;65.57;30.92;;;;;;;1.61;93.49;100405.56;5066902;28;20101;-79
2024/02/04 06:02:45;;;;;;;54.15;26.20;;;;;;;1.28;96.34;100362.41;5063116;28;20028;-78
2024/02/04 06:05:13;;;;;;;50.22;24.70;;;;;;;1.59;95.80;100387.31;5046608;28;20048;-78
2024/02/04 06:07:40;;;;;;;156.63;54.53;;;;;;;1.56;94.71;100366.59;5051406;28;20059;-78
2024/02/04 06:10:09;;;;;;;59.35;26.33;;;;;;;1.89;92.89;100387.84;5046834;28;20036;-77
2024/02/04 06:12:34;;;;;;;43.72;25.15;;;;;;;2.14;91.27;100361.69;5047452;28;20489;-78
2024/02/04 06:15:00;;;;;;;42.08;24.60;;;;;;;2.00;91.18;100336.78;5063972;28;20043;-78
2024/02/04 06:17:25;;;;;;;41.65;23.70;;;;;;;2.05;91.92;100378.44;5080261;28;20424;-78
2024/02/04 06:19:50;;;;;;;46.25;27.88;;;;;;;1.92;93.70;100369.16;5087082;28;20115;-78
2024/02/04 06:22:16;;;;;;;55.70;32.72;;;;;;;1.80;94.49;100362.50;5068916;28;20036;-79
2024/02/04 06:24:41;;;;;;;40.80;20.05;;;;;;;1.69;95.94;100349.59;5070019;28;20115;-78
2024/02/04 06:27:08;;;;;;;40.70;22.75;;;;;;;1.58;97.75;100335.72;5069262;28;20501;-78
2024/02/04 06:29:33;;;;;;;31.65;19.50;;;;;;;1.99;94.87;100346.50;5082100;28;20028;-79
2024/02/04 06:31:59;;;;;;;34.55;20.10;;;;;;;1.82;95.57;100342.13;5058905;28;20060;-78
2024/02/04 06:34:24;;;;;;;36.42;23.17;;;;;;;1.90;95.52;100328.19;5076095;28;20021;-79
2024/02/04 06:36:50;;;;;;;49.30;29.75;;;;;;;2.25;92.88;100348.28;5079121;28;20084;-77
2024/02/04 06:39:16;;;;;;;69.18;43.58;;;;;;;1.75;95.00;100327.94;5076385;28;20029;-78
2024/02/04 06:41:41;;;;;;;74.18;47.80;;;;;;;2.17;94.11;100364.03;5060467;28;20050;-79
2024/02/04 06:44:06;;;;;;;65.10;39.45;;;;;;;1.86;96.02;100332.09;5084033;28;20034;-79
2024/02/04 06:46:32;;;;;;;44.28;27.27;;;;;;;2.06;94.29;100324.81;5078035;28;20081;-78
2024/02/04 06:48:57;;;;;;;50.90;31.27;;;;;;;2.29;92.62;100336.44;5083308;28;20047;-78
2024/02/04 06:51:23;;;;;;;43.25;30.17;;;;;;;2.18;92.82;100365.66;5080836;28;20028;-78
2024/02/04 06:53:49;;;;;;;51.13;33.22;;;;;;;1.96;94.84;100354.69;5081638;28;20020;-79
2024/02/04 06:56:14;;;;;;;61.25;29.50;;;;;;;2.25;95.21;100356.16;5078226;28;20052;-78
2024/02/04 06:58:43;;;;;;;47.67;28.40;;;;;;;2.52;93.37;100356.94;5062684;28;20046;-77
2024/02/04 07:01:09;;;;;;;62.05;45.30;;;;;;;2.61;93.15;100371.75;5079191;28;20398;-78
2024/02/04 07:03:34;;;;;;;48.40;34.85;;;;;;;2.42;93.00;100349.97;5082760;28;20028;-79
2024/02/04 07:06:00;;;;;;;49.90;32.17;;;;;;;2.69;92.28;100382.31;5079947;28;20028;-78
2024/02/04 07:08:26;;;;;;;74.53;40.13;;;;;;;2.69;92.57;100379.69;5080966;28;20033;-79
2024/02/04 07:10:51;;;;;;;47.95;26.33;;;;;;;2.99;92.17;100395.91;5062144;28;20028;-79
2024/02/04 07:13:17;;;;;;;93.63;41.95;;;;;;;3.16;91.08;100376.50;5081586;28;20497;-78
2024/02/04 07:15:43;;;;;;;111.18;43.55;;;;;;;3.50;89.02;100367.63;5080347;28;20065;-79
2024/02/04 07:18:08;;;;;;;93.15;43.40;;;;;;;3.65;88.39;100382.78;5055090;28;20033;-79
2024/02/04 07:20:34;;;;;;;54.80;29.75;;;;;;;3.74;88.01;100365.94;5069386;28;20088;-78
2024/02/04 07:22:59;;;;;;;157.43;74.45;;;;;;;3.76;88.69;100392.97;5069501;28;20056;-77
2024/02/04 07:25:25;;;;;;;56.67;34.08;;;;;;;3.67;88.56;100354.44;5059540;28;20051;-78
2024/02/04 07:27:51;;;;;;;28.60;16.70;;;;;;;3.80;90.30;100374.03;5082389;28;20804;-78
2024/02/04 07:30:17;;;;;;;27.60;16.83;;;;;;;4.10;88.85;100389.31;5079734;28;20024;-78
2024/02/04 07:32:42;;;;;;;32.83;19.92;;;;;;;4.08;88.09;100362.25;5082224;28;20020;-78
2024/02/04 07:35:08;;;;;;;55.17;31.48;;;;;;;4.10;88.19;100368.19;5071468;28;20131;-78
2024/02/04 07:37:37;;;;;;;63.67;37.55;;;;;;;4.18;88.35;100376.09;5088835;28;20481;-78
2024/02/04 07:40:05;;;;;;;53.58;33.03;;;;;;;4.40;88.64;100396.47;5089566;28;20536;-78
2024/02/04 07:42:30;;;;;;;58.30;34.85;;;;;;;4.81;87.45;100403.41;5089047;28;20027;-77
2024/02/04 07:44:56;;;;;;;100.72;57.05;;;;;;;4.73;87.34;100380.50;5089209;28;20040;-78
2024/02/04 07:47:21;;;;;;;66.28;36.63;;;;;;;4.96;86.84;100396.38;5069703;28;20067;-79
2024/02/04 07:49:52;;;;;;;55.47;31.92;;;;;;;5.16;90.36;100394.13;5084162;28;20048;-77
2024/02/04 07:52:18;;;;;;;83.35;41.70;;;;;;;5.13;86.69;100386.56;5055184;28;20032;-78
2024/02/04 07:54:43;;;;;;;65.65;35.47;;;;;;;5.33;85.63;100407.22;5058389;28;20039;-78
2024/02/04 07:57:09;;;;;;;119.20;55.17;;;;;;;5.38;85.46;100394.31;5084847;28;20020;-77
2024/02/04 07:59:35;;;;;;;53.50;32.10;;;;;;;5.20;86.60;100386.66;5086784;28;20031;-78
2024/02/04 08:02:01;;;;;;;48.78;28.73;;;;;;;5.21;85.72;100338.91;5070602;28;20762;-77
2024/02/04 08:04:26;;;;;;;49.25;29.73;;;;;;;5.57;85.51;100390.34;5090983;28;20553;-77
2024/02/04 08:06:52;;;;;;;59.75;36.65;;;;;;;5.84;83.86;100387.16;5070960;28;20579;-77
2024/02/04 08:09:18;;;;;;;112.72;57.53;;;;;;;5.56;84.14;100355.16;5066364;28;20043;-77
2024/02/04 08:11:43;;;;;;;85.55;45.92;;;;;;;6.08;82.99;100360.63;5087652;28;20020;-76
2024/02/04 08:14:09;;;;;;;95.13;52.50;;;;;;;6.17;83.48;100367.47;5081275;28;20024;-76
2024/02/04 08:16:34;;;;;;;86.18;47.47;;;;;;;6.35;83.67;100367.91;5080608;28;20736;-77
2024/02/04 08:19:00;;;;;;;47.50;26.77;;;;;;;6.64;84.00;100372.38;5078563;28;20127;-76
2024/02/04 08:21:26;;;;;;;34.15;20.17;;;;;;;6.47;83.61;100351.56;5078917;28;20107;-78
2024/02/04 08:23:51;;;;;;;37.47;20.13;;;;;;;6.84;84.46;100363.84;5065832;28;20104;-78
2024/02/04 08:26:17;;;;;;;76.82;41.03;;;;;;;6.96;82.02;100361.50;5084304;28;20100;-77
2024/02/04 08:28:42;;;;;;;41.97;24.08;;;;;;;7.00;80.28;100360.94;5081845;28;20020;-77
2024/02/04 08:31:08;;;;;;;55.72;29.80;;;;;;;7.00;81.36;100341.56;5079977;28;20028;-76
2024/02/04 08:33:33;;;;;;;33.58;20.00;;;;;;;7.32;81.97;100350.03;5063157;28;20028;-78
2024/02/04 08:35:58;;;;;;;37.35;21.98;;;;;;;7.82;80.91;100348.19;5065425;28;20050;-77
2024/02/04 08:38:24;;;;;;;54.78;30.52;;;;;;;8.27;80.32;100353.16;5086502;28;20028;-78
2024/02/04 08:40:49;;;;;;;20.88;12.95;;;;;;;9.04;79.33;100346.72;5078168;28;20139;-78
2024/02/04 08:43:15;;;;;;;13.30;8.30;;;;;;;9.41;76.74;100336.53;5085870;28;20059;-77
2024/02/04 08:45:40;;;;;;;12.88;7.03;;;;;;;9.71;74.88;100344.09;5066509;28;20036;-78
2024/02/04 08:48:06;;;;;;;11.98;7.15;;;;;;;9.89;74.55;100340.78;5085239;28;20090;-77
2024/02/04 08:50:31;;;;;;;10.07;6.20;;;;;;;10.48;72.82;100360.34;5088592;28;20028;-79
2024/02/04 08:52:57;;;;;;;10.27;5.70;;;;;;;10.91;70.29;100359.75;5090057;28;20162;-77
2024/02/04 08:55:22;;;;;;;10.63;5.45;;;;;;;11.14;69.78;100338.66;5084048;28;20093;-78
2024/02/04 08:57:50;;;;;;;9.88;5.60;;;;;;;11.62;68.63;100370.13;5064799;28;20103;-78
2024/02/04 09:00:16;;;;;;;8.68;5.43;;;;;;;12.01;65.77;100370.88;5082543;28;20032;-77
2024/02/04 09:02:42;;;;;;;10.43;5.55;;;;;;;12.42;65.41;100364.06;5080117;28;20024;-78
2024/02/04 09:05:08;;;;;;;9.20;5.45;;;;;;;12.56;62.87;100347.81;5082689;28;20028;-77
2024/02/04 09:07:33;;;;;;;9.80;5.20;;;;;;;12.93;63.08;100374.53;5087950;28;20407;-78
2024/02/04 09:09:58;;;;;;;8.30;5.15;;;;;;;13.34;61.98;100378.28;5071813;28;20036;-78
2024/02/04 09:12:24;;;;;;;8.25;4.43;;;;;;;13.29;59.99;100354.03;5069615;28;20024;-77
2024/02/04 09:14:49;;;;;;;7.38;4.00;;;;;;;13.46;60.18;100360.38;5087510;28;20521;-78
2024/02/04 09:17:15;;;;;;;8.52;4.57;;;;;;;13.46;59.65;100365.75;5087646;28;20051;-78
2024/02/04 09:19:40;;;;;;;8.32;4.40;;;;;;;13.70;59.66;100344.34;5067161;28;20466;-77
2024/02/04 09:22:06;;;;;;;10.65;5.95;;;;;;;14.20;56.44;100354.56;5087952;28;20492;-78
2024/02/04 09:24:31;;;;;;;9.60;4.85;;;;;;;14.28;55.24;100351.50;5086756;28;20032;-78
2024/02/04 09:26:57;;;;;;;7.97;4.90;;;;;;;14.47;55.90;100342.25;5071209;28;20493;-77
2024/02/04 09:29:22;;;;;;;8.75;5.50;;;;;;;15.06;54.64;100352.00;5074073;28;20032;-79
2024/02/04 09:31:49;;;;;;;6.75;4.43;;;;;;;15.12;53.88;100363.63;5084749;28;20485;-78
2024/02/04 09:34:15;;;;;;;8.45;5.20;;;;;;;15.24;54.11;100359.84;5087167;28;20746;-78
2024/02/04 09:36:40;;;;;;;7.03;4.20;;;;;;;15.44;51.27;100353.97;5086970;28;20024;-78
2024/02/04 09:39:06;;;;;;;7.63;4.25;;;;;;;15.45;51.39;100338.69;5081492;28;20029;-78
2024/02/04 09:41:31;;;;;;;6.50;3.40;;;;;;;15.46;49.51;100342.97;5080526;28;20046;-77
2024/02/04 09:43:58;;;;;;;6.47;3.60;;;;;;;14.98;50.23;100317.47;5087139;28;20051;-78
2024/02/04 09:46:23;;;;;;;8.93;3.72;;;;;;;14.83;51.03;100323.38;5087808;28;20020;-77
2024/02/04 09:48:50;;;;;;;6.22;3.22;;;;;;;15.01;50.83;100323.16;5086160;28;20093;-78
2024/02/04 09:51:16;;;;;;;7.75;3.50;;;;;;;15.13;50.42;100331.16;5081188;28;20044;-78
2024/02/04 09:53:45;;;;;;;4.70;2.75;;;;;;;15.59;49.67;100318.47;5068992;28;20027;-78
2024/02/04 09:56:12;;;;;;;5.38;2.80;;;;;;;16.11;47.59;100317.34;5080134;28;20028;-77
2024/02/04 09:58:38;;;;;;;5.60;2.60;;;;;;;16.57;45.88;100325.16;5068388;28;20038;-79
2024/02/04 10:01:08;;;;;;;5.93;2.28;;;;;;;16.46;46.08;100284.66;5086575;28;20147;-77
2024/02/04 10:03:34;;;;;;;12.10;5.35;;;;;;;16.44;44.91;100313.69;5068750;28;20107;-77
2024/02/04 10:05:59;;;;;;;12.18;5.55;;;;;;;16.51;44.96;100301.91;5083641;28;20103;-78
2024/02/04 10:08:25;;;;;;;8.52;5.32;;;;;;;16.38;44.82;100293.16;5049154;28;20115;-77
2024/02/04 10:10:50;;;;;;;7.93;3.88;;;;;;;16.33;45.00;100276.16;5079570;28;20024;-77
2024/02/04 10:13:16;;;;;;;11.23;4.10;;;;;;;16.40;43.46;100291.03;5059963;28;20036;-78
2024/02/04 10:15:41;;;;;;;7.20;3.30;;;;;;;16.35;45.42;100287.50;5076820;28;20536;-78
2024/02/04 10:18:08;;;;;;;6.93;3.25;;;;;;;16.31;44.45;100302.53;5082094;28;20032;-78
2024/02/04 10:20:34;;;;;;;8.10;2.78;;;;;;;16.24;44.76;100294.63;5080578;28;20138;-77
2024/02/04 10:22:59;;;;;;;4.65;2.80;;;;;;;16.21;44.06;100287.06;5082718;28;20028;-77
2024/02/04 10:25:26;;;;;;;11.00;2.50;;;;;;;16.23;44.48;100296.50;5080522;28;20039;-78
2024/02/04 10:27:52;;;;;;;4.07;2.20;;;;;;;15.90;45.51;100305.50;5062903;28;20051;-77
2024/02/04 10:30:21;;;;;;;3.50;1.80;;;;;;;15.61;45.91;100288.63;5085098;28;20040;-77
2024/02/04 10:32:56;;;;;;;3.92;2.00;;;;;;;15.43;45.58;100316.59;5062488;28;20027;-78
2024/02/04 10:35:23;;;;;;;4.93;2.50;;;;;;;15.36;46.19;100302.50;5064506;28;20036;-78
2024/02/04 10:37:49;;;;;;;6.47;2.67;;;;;;;15.48;46.86;100305.94;5090718;28;20025;-78
2024/02/04 10:40:14;;;;;;;4.68;2.40;;;;;;;15.57;46.45;100307.16;5088676;28;20090;-78
2024/02/04 10:42:42;;;;;;;3.53;2.00;;;;;;;15.16;47.19;100293.06;5079858;28;20028;-77
2024/02/04 10:45:12;;;;;;;3.70;1.80;;;;;;;15.21;48.38;100308.47;5080944;28;20136;-78
2024/02/04 10:47:39;;;;;;;4.28;2.45;;;;;;;14.98;47.82;100309.41;5084207;28;20074;-78
2024/02/04 10:50:05;;;;;;;3.72;1.85;;;;;;;14.82;48.58;100322.56;5081861;28;20032;-78
2024/02/04 10:52:38;;;;;;;5.28;2.30;;;;;;;14.67;49.22;100306.19;5074603;28;20031;-78
2024/02/04 10:55:09;;;;;;;5.65;2.70;;;;;;;14.56;49.79;100298.97;5069870;28;20574;-78
2024/02/04 10:57:35;;;;;;;11.82;6.35;;;;;;;14.79;49.99;100315.00;5069671;28;20056;-78
2024/02/04 11:00:04;;;;;;;7.03;3.50;;;;;;;14.70;49.97;100316.41;5079526;28;20091;-82
2024/02/04 11:02:33;;;;;;;5.93;2.33;;;;;;;14.69;49.88;100304.06;5081484;28;20028;-79
2024/02/04 11:05:00;;;;;;;5.30;3.40;;;;;;;14.67;50.00;100295.44;5083629;28;20063;-79
2024/02/04 11:07:26;;;;;;;4.22;2.25;;;;;;;14.63;49.68;100307.72;5071878;28;20028;-78
2024/02/04 11:09:52;;;;;;;5.85;3.67;;;;;;;14.61;51.04;100297.22;5088567;28;20024;-79
2024/02/04 11:12:21;;;;;;;7.35;4.38;;;;;;;14.66;49.71;100299.16;5090164;28;20078;-77
2024/02/04 11:14:51;;;;;;;9.25;4.18;;;;;;;14.62;50.60;100290.78;5071534;28;20028;-78